createdAt,value
2022-08-07T00:00:47.212Z,17.33
2022-08-07T00:02:37.035Z,17.31
2022-08-07T00:02:48.189Z,17.31
2022-08-07T00:03:47.626Z,17.31
2022-08-07T00:04:47.191Z,17.28
2022-08-07T00:05:47.172Z,17.28
2022-08-07T00:06:51.901Z,17.28
2022-08-07T00:07:48.133Z,17.28
2022-08-07T00:08:48.133Z,17.28
2022-08-07T00:09:59.249Z,17.25
2022-08-07T00:10:57.492Z,17.23
2022-08-07T00:11:56.152Z,17.23
2022-08-07T00:12:58.054Z,17.23
2022-08-07T00:13:48.107Z,17.22
2022-08-07T00:14:47.073Z,17.23
2022-08-07T00:15:51.164Z,17.23
2022-08-07T00:16:47.052Z,17.21
2022-08-07T00:17:47.115Z,17.23
2022-08-07T00:18:47.167Z,17.21
2022-08-07T00:20:01.624Z,17.18
2022-08-07T00:20:48.008Z,17.22
2022-08-07T00:21:57.335Z,17.18
2022-08-07T00:22:51.715Z,17.18
2022-08-07T00:23:47.538Z,17.21
2022-08-07T00:24:46.945Z,17.18
2022-08-07T00:25:52.085Z,17.16
2022-08-07T00:26:49.184Z,17.18
2022-08-07T00:27:52.370Z,17.19
2022-08-07T00:28:56.523Z,17.16
2022-08-07T00:29:47.907Z,17.15
2022-08-07T00:30:46.906Z,17.14
2022-08-07T00:31:46.884Z,17.16
2022-08-07T00:32:46.868Z,17.11
2022-08-07T00:33:47.585Z,17.11
2022-08-07T00:34:46.874Z,17.08
2022-08-07T00:35:49.589Z,17.08
2022-08-07T00:36:46.847Z,17.07
2022-08-07T00:37:47.941Z,17.06
2022-08-07T00:38:46.829Z,17.01
2022-08-07T00:39:54.381Z,16.94
2022-08-07T00:40:47.793Z,16.94
2022-08-07T00:41:53.923Z,16.93
2022-08-07T00:42:47.778Z,16.93
2022-08-07T00:43:59.664Z,16.91
2022-08-07T00:44:47.740Z,16.88
2022-08-07T00:45:46.777Z,16.85
2022-08-07T00:46:46.738Z,16.79
2022-08-07T00:48:18.420Z,16.73
2022-08-07T00:48:49.852Z,16.70
2022-08-07T00:50:20.813Z,16.70
2022-08-07T00:50:51.274Z,16.71
2022-08-07T00:51:57.778Z,16.68
2022-08-07T00:52:47.723Z,16.67
2022-08-07T00:53:54.998Z,16.67
2022-08-07T00:54:53.428Z,16.63
2022-08-07T00:56:03.371Z,16.66
2022-08-07T00:56:49.975Z,16.63
2022-08-07T00:57:55.764Z,16.60
2022-08-07T00:58:49.496Z,16.58
2022-08-07T00:59:46.574Z,16.64
2022-08-07T01:00:53.613Z,16.61
2022-08-07T01:01:47.606Z,16.63
2022-08-07T01:02:46.565Z,16.61
2022-08-07T01:03:55.954Z,16.63
2022-08-07T01:04:47.553Z,16.60
2022-08-07T01:05:53.622Z,16.60
2022-08-07T01:06:47.508Z,16.63
2022-08-07T01:07:46.512Z,16.57
2022-08-07T01:08:51.531Z,16.60
2022-08-07T01:10:05.754Z,16.61
2022-08-07T01:10:47.682Z,16.61
2022-08-07T01:12:09.037Z,16.63
2022-08-07T01:12:54.078Z,16.60
2022-08-07T01:13:55.821Z,16.63
2022-08-07T01:14:47.422Z,16.60
2022-08-07T01:16:05.066Z,16.63
2022-08-07T01:16:47.973Z,16.63
2022-08-07T01:17:46.562Z,16.60
2022-08-07T01:18:46.451Z,16.63
2022-08-07T01:19:54.230Z,16.63
2022-08-07T01:20:57.265Z,16.67
2022-08-07T01:21:47.361Z,16.68
2022-08-07T01:22:46.753Z,16.67
2022-08-07T01:23:47.319Z,16.68
2022-08-07T01:24:46.308Z,16.68
2022-08-07T01:25:56.127Z,16.64
2022-08-07T01:26:51.778Z,16.63
2022-08-07T01:27:51.225Z,16.61
2022-08-07T01:28:48.279Z,16.61
2022-08-07T01:29:46.255Z,16.60
2022-08-07T01:30:46.250Z,16.61
2022-08-07T01:31:48.283Z,16.63
2022-08-07T01:32:46.336Z,16.56
2022-08-07T01:33:55.835Z,16.56
2022-08-07T01:34:49.240Z,16.56
2022-08-07T01:35:54.130Z,16.53
2022-08-07T01:36:52.709Z,16.52
2022-08-07T01:37:47.173Z,16.50
2022-08-07T01:38:46.210Z,16.50
2022-08-07T01:39:46.947Z,16.48
2022-08-07T01:40:46.181Z,16.49
2022-08-07T01:42:01.517Z,16.46
2022-08-07T01:42:57.573Z,16.43
2022-08-07T01:43:47.109Z,16.42
2022-08-07T01:44:47.936Z,16.43
2022-08-07T01:45:46.661Z,16.42
2022-08-07T01:46:46.115Z,16.41
2022-08-07T01:48:19.414Z,16.39
2022-08-07T01:48:47.534Z,16.41
2022-08-07T01:49:46.057Z,16.39
2022-08-07T01:50:47.045Z,16.35
2022-08-07T01:52:04.170Z,16.38
2022-08-07T01:52:49.674Z,16.35
2022-08-07T01:54:12.729Z,16.30
2022-08-07T01:54:46.991Z,16.28
2022-08-07T01:55:45.997Z,16.21
2022-08-07T01:56:49.509Z,16.09
2022-08-07T01:58:05.883Z,16.01
2022-08-07T01:58:46.958Z,15.94
2022-08-07T01:59:45.956Z,15.93
2022-08-07T02:00:49.378Z,15.94
2022-08-07T02:01:59.875Z,15.92
2022-08-07T02:03:19.222Z,15.93
2022-08-07T02:03:51.192Z,15.93
2022-08-07T02:04:56.335Z,15.92
2022-08-07T02:05:53.647Z,15.90
2022-08-07T02:06:46.860Z,15.93
2022-08-07T02:07:50.446Z,15.90
2022-08-07T02:08:46.840Z,15.90
2022-08-07T02:09:53.178Z,15.92
2022-08-07T02:10:48.653Z,15.92
2022-08-07T02:12:04.833Z,15.96
2022-08-07T02:12:50.241Z,15.93
2022-08-07T02:14:00.708Z,16.00
2022-08-07T02:14:46.794Z,16.01
2022-08-07T02:15:45.770Z,16.04
2022-08-07T02:16:45.751Z,16.04
2022-08-07T02:17:49.219Z,16.07
2022-08-07T02:18:47.147Z,16.09
2022-08-07T02:20:04.348Z,16.05
2022-08-07T02:20:48.725Z,16.09
2022-08-07T02:21:55.088Z,16.08
2022-08-07T02:22:46.681Z,16.09
2022-08-07T02:23:46.695Z,16.07
2022-08-07T02:24:45.676Z,16.05
2022-08-07T02:26:31.729Z,16.04
2022-08-07T02:26:46.686Z,16.09
2022-08-07T02:27:51.898Z,16.05
2022-08-07T02:28:46.634Z,16.07
2022-08-07T02:29:54.239Z,16.02
2022-08-07T02:30:46.634Z,16.07
2022-08-07T02:31:45.597Z,16.07
2022-08-07T02:33:00.439Z,16.02
2022-08-07T02:34:01.903Z,16.02
2022-08-07T02:34:50.988Z,16.05
2022-08-07T02:36:29.723Z,16.05
2022-08-07T02:36:46.539Z,16.04
2022-08-07T02:37:45.536Z,16.01
2022-08-07T02:38:50.950Z,15.97
2022-08-07T02:40:02.075Z,15.94
2022-08-07T02:40:46.768Z,16.00
2022-08-07T02:41:50.673Z,15.96
2022-08-07T02:42:46.468Z,16.01
2022-08-07T02:43:48.864Z,16.01
2022-08-07T02:44:48.725Z,15.94
2022-08-07T02:45:59.297Z,15.94
2022-08-07T02:46:46.738Z,15.94
2022-08-07T02:47:49.146Z,15.93
2022-08-07T02:48:54.637Z,15.92
2022-08-07T02:49:59.060Z,15.90
2022-08-07T02:50:46.339Z,15.93
2022-08-07T02:51:51.880Z,15.90
2022-08-07T02:52:47.838Z,15.90
2022-08-07T02:53:45.380Z,15.89
2022-08-07T02:54:45.340Z,15.90
2022-08-07T02:56:03.452Z,15.87
2022-08-07T02:56:46.285Z,15.89
2022-08-07T02:57:46.720Z,15.83
2022-08-07T02:58:47.299Z,15.84
2022-08-07T02:59:45.320Z,15.82
2022-08-07T03:00:47.009Z,15.83
2022-08-07T03:01:47.234Z,15.84
2022-08-07T03:02:54.542Z,15.83
2022-08-07T03:03:50.525Z,15.83
2022-08-07T03:04:45.193Z,15.82
2022-08-07T03:05:45.195Z,15.78
2022-08-07T03:06:45.881Z,15.80
2022-08-07T03:08:07.682Z,15.75
2022-08-07T03:08:46.144Z,15.80
2022-08-07T03:09:48.262Z,15.76
2022-08-07T03:10:47.011Z,15.76
2022-08-07T03:11:52.273Z,15.78
2022-08-07T03:12:46.099Z,15.76
2022-08-07T03:13:49.824Z,15.74
2022-08-07T03:14:48.614Z,15.78
2022-08-07T03:15:55.959Z,15.76
2022-08-07T03:16:46.085Z,15.78
2022-08-07T03:17:53.010Z,15.74
2022-08-07T03:18:46.507Z,15.76
2022-08-07T03:19:45.033Z,15.76
2022-08-07T03:20:46.017Z,15.74
2022-08-07T03:21:45.583Z,15.72
2022-08-07T03:22:50.002Z,15.72
2022-08-07T03:24:18.961Z,15.69
2022-08-07T03:24:45.986Z,15.68
2022-08-07T03:25:44.967Z,15.71
2022-08-07T03:26:57.941Z,15.71
2022-08-07T03:28:09.222Z,15.71
2022-08-07T03:28:45.929Z,15.69
2022-08-07T03:29:50.495Z,15.71
2022-08-07T03:30:45.920Z,15.69
2022-08-07T03:31:46.478Z,15.68
2022-08-07T03:32:58.192Z,15.67
2022-08-07T03:33:45.884Z,15.67
2022-08-07T03:34:47.548Z,15.71
2022-08-07T03:35:50.478Z,15.71
2022-08-07T03:36:44.849Z,15.75
2022-08-07T03:37:46.154Z,15.74
2022-08-07T03:38:45.840Z,15.75
2022-08-07T03:39:59.975Z,15.80
2022-08-07T03:40:45.872Z,15.84
2022-08-07T03:41:47.625Z,15.84
2022-08-07T03:42:45.795Z,15.83
2022-08-07T03:43:56.855Z,15.83
2022-08-07T03:44:47.114Z,15.80
2022-08-07T03:45:47.465Z,15.75
2022-08-07T03:47:11.454Z,15.75
2022-08-07T03:47:51.091Z,15.68
2022-08-07T03:49:02.502Z,15.65
2022-08-07T03:49:47.840Z,15.62
2022-08-07T03:50:56.241Z,15.64
2022-08-07T03:51:47.482Z,15.65
2022-08-07T03:52:45.684Z,15.64
2022-08-07T03:54:05.514Z,15.65
2022-08-07T03:55:53.064Z,15.68
2022-08-07T03:56:40.382Z,15.68
2022-08-07T03:58:34.295Z,15.67
2022-08-07T03:59:06.973Z,15.68
2022-08-07T03:59:46.694Z,15.69
2022-08-07T04:00:46.495Z,15.71
2022-08-07T04:01:40.443Z,15.69
2022-08-07T04:02:41.359Z,15.71
2022-08-07T04:03:53.522Z,15.68
2022-08-07T04:04:40.314Z,15.71
2022-08-07T04:05:41.943Z,15.67
2022-08-07T04:06:39.286Z,15.72
2022-08-07T04:07:42.769Z,15.71
2022-08-07T04:08:40.290Z,15.72
2022-08-07T04:09:45.226Z,15.72
2022-08-07T04:10:42.381Z,15.72
2022-08-07T04:12:21.160Z,15.78
2022-08-07T04:12:40.225Z,15.76
2022-08-07T04:14:10.098Z,15.80
2022-08-07T04:14:43.679Z,15.78
2022-08-07T04:15:40.216Z,15.82
2022-08-07T04:16:40.338Z,15.78
2022-08-07T04:18:56.708Z,15.76
2022-08-07T04:18:59.293Z,15.78
2022-08-07T04:19:52.398Z,15.83
2022-08-07T04:20:40.149Z,15.80
2022-08-07T04:21:40.141Z,15.87
2022-08-07T04:22:40.134Z,15.87
2022-08-07T04:23:43.754Z,15.84
2022-08-07T04:24:41.183Z,15.89
2022-08-07T04:25:40.816Z,15.90
2022-08-07T04:26:39.088Z,15.92
2022-08-07T04:27:39.363Z,15.92
2022-08-07T04:28:40.061Z,15.90
2022-08-07T04:29:48.991Z,15.92
2022-08-07T04:30:51.266Z,15.94
2022-08-07T04:32:03.405Z,15.97
2022-08-07T04:32:40.033Z,16.00
2022-08-07T04:33:40.028Z,16.01
2022-08-07T04:34:39.529Z,16.05
2022-08-07T04:35:38.993Z,16.04
2022-08-07T04:36:38.965Z,16.08
2022-08-07T04:38:01.072Z,16.12
2022-08-07T04:38:39.968Z,16.15
2022-08-07T04:39:38.991Z,16.21
2022-08-07T04:40:51.280Z,16.24
2022-08-07T04:41:42.016Z,16.21
2022-08-07T04:42:38.941Z,16.25
2022-08-07T04:44:09.888Z,16.30
2022-08-07T04:45:02.836Z,16.33
2022-08-07T04:45:57.543Z,16.35
2022-08-07T04:46:59.255Z,16.45
2022-08-07T04:48:02.231Z,16.48
2022-08-07T04:48:39.853Z,16.46
2022-08-07T04:49:39.845Z,16.50
2022-08-07T04:50:38.820Z,16.57
2022-08-07T04:51:38.835Z,16.66
2022-08-07T04:52:38.806Z,16.66
2022-08-07T04:53:56.358Z,16.70
2022-08-07T04:54:39.774Z,16.73
2022-08-07T04:58:07.636Z,16.76
2022-08-07T04:58:10.347Z,16.83
2022-08-07T04:58:14.163Z,17.08
2022-08-07T04:59:17.499Z,17.54
2022-08-07T05:00:11.509Z,18.27
2022-08-07T05:00:39.754Z,19.07
2022-08-07T05:01:38.818Z,19.65
2022-08-07T05:02:38.699Z,20.13
2022-08-07T05:04:07.951Z,20.67
2022-08-07T05:04:47.139Z,21.03
2022-08-07T05:05:52.945Z,21.53
2022-08-07T05:06:43.256Z,21.98
2022-08-07T05:07:48.600Z,22.25
2022-08-07T05:08:59.895Z,22.37
2022-08-07T05:09:45.708Z,22.54
2022-08-07T05:10:39.629Z,22.91
2022-08-07T05:11:56.800Z,23.15
2022-08-07T05:12:46.189Z,23.35
2022-08-07T05:14:53.404Z,24.15
2022-08-07T05:14:55.859Z,23.66
2022-08-07T05:15:39.561Z,24.69
2022-08-07T05:16:43.856Z,24.39
2022-08-07T05:17:52.839Z,24.30
2022-08-07T05:18:39.523Z,24.18
2022-08-07T05:19:44.858Z,24.05
2022-08-07T05:20:39.504Z,24.02
2022-08-07T05:22:00.889Z,24.20
2022-08-07T05:22:39.580Z,24.28
2022-08-07T05:23:38.473Z,24.22
2022-08-07T05:24:40.442Z,24.06
2022-08-07T05:26:13.771Z,24.02
2022-08-07T05:26:39.437Z,23.55
2022-08-07T05:28:03.307Z,23.47
2022-08-07T05:28:40.601Z,23.75
2022-08-07T05:29:39.063Z,24.43
2022-08-07T05:30:39.864Z,25.05
2022-08-07T05:31:38.400Z,25.64
2022-08-07T05:32:38.398Z,26.20
2022-08-07T05:33:38.365Z,26.51
2022-08-07T05:34:38.368Z,26.89
2022-08-07T05:35:41.713Z,27.09
2022-08-07T05:36:39.119Z,27.31
2022-08-07T05:37:40.819Z,27.74
2022-08-07T05:39:01.418Z,28.06
2022-08-07T05:40:13.485Z,28.37
2022-08-07T05:40:42.803Z,28.71
2022-08-07T05:42:01.779Z,28.96
2022-08-07T05:42:39.410Z,29.27
2022-08-07T05:43:50.035Z,29.43
2022-08-07T05:44:46.403Z,29.46
2022-08-07T05:45:47.354Z,29.55
2022-08-07T05:46:39.270Z,29.61
2022-08-07T05:48:01.617Z,29.64
2022-08-07T05:48:58.626Z,29.67
2022-08-07T05:49:40.965Z,29.83
2022-08-07T05:50:39.621Z,29.90
2022-08-07T05:51:39.956Z,29.68
2022-08-07T05:52:38.167Z,29.08
2022-08-07T05:54:14.105Z,28.43
2022-08-07T05:54:53.586Z,28.41
2022-08-07T05:56:01.894Z,28.77
2022-08-07T05:56:39.124Z,29.04
2022-08-07T05:57:38.311Z,29.31
2022-08-07T05:58:39.070Z,29.71
2022-08-07T05:59:39.041Z,29.98
2022-08-07T06:00:39.086Z,30.23
2022-08-07T06:01:38.125Z,30.49
2022-08-07T06:02:38.067Z,30.75
2022-08-07T06:03:57.152Z,30.84
2022-08-07T06:04:39.062Z,31.06
2022-08-07T06:05:38.030Z,31.28
2022-08-07T06:06:38.351Z,31.20
2022-08-07T06:08:13.017Z,30.55
2022-08-07T06:08:42.541Z,30.53
2022-08-07T06:10:04.000Z,30.58
2022-08-07T06:10:38.989Z,30.46
2022-08-07T06:11:37.974Z,30.11
2022-08-07T06:12:37.976Z,29.58
2022-08-07T06:14:12.047Z,28.74
2022-08-07T06:14:38.942Z,28.98
2022-08-07T06:15:39.497Z,28.48
2022-08-07T06:16:38.935Z,27.40
2022-08-07T06:17:38.582Z,27.03
2022-08-07T06:18:37.914Z,26.05
2022-08-07T06:19:57.768Z,25.69
2022-08-07T06:20:50.941Z,25.14
2022-08-07T06:22:16.272Z,25.33
2022-08-07T06:22:40.240Z,25.17
2022-08-07T06:24:32.562Z,25.08
2022-08-07T06:24:52.761Z,24.83
2022-08-07T06:25:38.824Z,24.22
2022-08-07T06:26:37.836Z,24.27
2022-08-07T06:28:00.115Z,24.25
2022-08-07T06:28:38.812Z,24.69
2022-08-07T06:29:38.956Z,25.28
2022-08-07T06:30:42.669Z,25.80
2022-08-07T06:31:49.674Z,26.37
2022-08-07T06:32:38.849Z,26.89
2022-08-07T06:33:37.834Z,27.27
2022-08-07T06:34:40.613Z,27.60
2022-08-07T06:35:45.670Z,27.92
2022-08-07T06:36:38.729Z,28.37
2022-08-07T06:37:44.106Z,28.83
2022-08-07T06:38:38.718Z,29.16
2022-08-07T06:40:16.943Z,29.49
2022-08-07T06:40:38.720Z,29.34
2022-08-07T06:42:02.656Z,29.45
2022-08-07T06:42:38.672Z,29.45
2022-08-07T06:43:40.011Z,29.45
2022-08-07T06:44:39.650Z,29.42
2022-08-07T06:45:37.622Z,29.23
2022-08-07T06:46:37.604Z,29.18
2022-08-07T06:47:48.337Z,29.16
2022-08-07T06:48:38.585Z,29.14
2022-08-07T06:49:50.824Z,28.33
2022-08-07T06:50:38.892Z,27.81
2022-08-07T06:51:49.735Z,28.18
2022-08-07T06:52:38.742Z,27.60
2022-08-07T06:55:28.350Z,27.54
2022-08-07T06:55:31.489Z,27.69
2022-08-07T06:55:53.745Z,28.02
2022-08-07T06:56:38.657Z,28.06
2022-08-07T06:57:43.433Z,28.24
2022-08-07T06:58:38.668Z,28.46
2022-08-07T07:00:11.856Z,28.64
2022-08-07T07:00:38.457Z,28.70
2022-08-07T07:01:43.813Z,28.70
2022-08-07T07:02:54.003Z,28.49
2022-08-07T07:03:48.890Z,28.30
2022-08-07T07:04:38.472Z,28.03
2022-08-07T07:06:02.385Z,27.75
2022-08-07T07:06:39.358Z,27.32
2022-08-07T07:07:59.796Z,26.55
2022-08-07T07:08:39.890Z,26.25
2022-08-07T07:09:38.385Z,25.76
2022-08-07T07:10:37.353Z,25.27
2022-08-07T07:12:07.622Z,24.85
2022-08-07T07:12:38.346Z,24.46
2022-08-07T07:13:41.647Z,24.24
2022-08-07T07:14:38.326Z,23.94
2022-08-07T07:15:37.757Z,23.68
2022-08-07T07:16:38.907Z,23.32
2022-08-07T07:17:38.828Z,23.17
2022-08-07T07:18:48.225Z,23.10
2022-08-07T07:19:55.264Z,23.04
2022-08-07T07:20:38.246Z,22.90
2022-08-07T07:21:40.453Z,22.65
2022-08-07T07:22:50.947Z,22.45
2022-08-07T07:24:09.133Z,22.31
2022-08-07T07:24:38.209Z,21.94
2022-08-07T07:26:32.658Z,21.56
2022-08-07T07:26:38.211Z,21.28
2022-08-07T07:27:56.361Z,21.21
2022-08-07T07:29:23.493Z,21.28
2022-08-07T07:29:56.955Z,21.34
2022-08-07T07:30:39.700Z,21.43
2022-08-07T07:31:40.172Z,21.53
2022-08-07T07:32:38.160Z,21.59
2022-08-07T07:33:37.140Z,21.61
2022-08-07T07:34:37.130Z,21.64
2022-08-07T07:35:43.810Z,21.62
2022-08-07T07:36:40.541Z,21.53
2022-08-07T07:37:49.482Z,21.29
2022-08-07T07:38:38.093Z,21.32
2022-08-07T07:39:52.462Z,21.38
2022-08-07T07:40:38.053Z,21.47
2022-08-07T07:42:09.083Z,21.56
2022-08-07T07:42:38.027Z,21.47
2022-08-07T07:43:47.736Z,21.38
2022-08-07T07:44:38.035Z,21.35
2022-08-07T07:46:53.810Z,21.37
2022-08-07T07:46:55.823Z,21.47
2022-08-07T07:47:42.907Z,21.52
2022-08-07T07:48:37.965Z,21.49
2022-08-07T07:50:35.484Z,21.49
2022-08-07T07:50:39.082Z,21.53
2022-08-07T07:51:57.858Z,21.62
2022-08-07T07:52:37.926Z,21.59
2022-08-07T07:53:38.234Z,21.59
2022-08-07T07:54:37.948Z,21.64
2022-08-07T07:55:37.391Z,21.65
2022-08-07T07:56:36.917Z,21.69
2022-08-07T07:57:51.625Z,21.77
2022-08-07T07:58:40.872Z,21.83
2022-08-07T07:59:52.575Z,21.91
2022-08-07T08:00:37.865Z,21.99
2022-08-07T08:02:02.047Z,22.00
2022-08-07T08:02:37.876Z,21.99
2022-08-07T08:04:09.986Z,22.00
2022-08-07T08:04:37.844Z,21.92
2022-08-07T08:05:54.310Z,21.90
2022-08-07T08:06:37.780Z,22.00
2022-08-07T08:07:42.454Z,22.10
2022-08-07T08:08:39.285Z,22.18
2022-08-07T08:09:52.214Z,22.24
2022-08-07T08:10:38.799Z,22.36
2022-08-07T08:12:00.008Z,22.28
2022-08-07T08:12:59.266Z,22.12
2022-08-07T08:13:52.894Z,21.96
2022-08-07T08:14:37.713Z,21.80
2022-08-07T08:15:57.907Z,21.77
2022-08-07T08:16:37.677Z,21.84
2022-08-07T08:17:58.148Z,21.90
2022-08-07T08:18:37.714Z,21.98
2022-08-07T08:20:18.552Z,22.10
2022-08-07T08:20:37.646Z,22.18
2022-08-07T08:22:00.595Z,22.33
2022-08-07T08:22:37.642Z,22.43
2022-08-07T08:23:37.595Z,22.43
2022-08-07T08:24:45.620Z,22.45
2022-08-07T08:25:43.014Z,22.54
2022-08-07T08:26:37.587Z,22.54
2022-08-07T08:27:36.604Z,22.47
2022-08-07T08:28:37.381Z,22.46
2022-08-07T08:29:36.557Z,22.42
2022-08-07T08:30:42.817Z,22.36
2022-08-07T08:31:58.956Z,22.33
2022-08-07T08:32:39.330Z,22.31
2022-08-07T08:33:36.528Z,22.39
2022-08-07T08:34:36.528Z,22.47
2022-08-07T08:35:42.832Z,22.42
2022-08-07T08:36:37.461Z,22.40
2022-08-07T08:38:01.311Z,22.31
2022-08-07T08:38:40.570Z,22.20
2022-08-07T08:39:39.480Z,22.10
2022-08-07T08:40:37.412Z,22.21
2022-08-07T08:41:58.720Z,22.24
2022-08-07T08:42:40.312Z,22.22
2022-08-07T08:43:42.137Z,22.24
2022-08-07T08:44:44.491Z,22.35
2022-08-07T08:45:58.764Z,22.40
2022-08-07T08:46:38.111Z,22.45
2022-08-07T08:47:52.173Z,22.27
2022-08-07T08:48:38.377Z,22.09
2022-08-07T08:49:46.164Z,22.12
2022-08-07T08:50:39.523Z,22.28
2022-08-07T08:52:00.819Z,22.42
2022-08-07T08:52:40.855Z,22.52
2022-08-07T08:53:37.305Z,22.65
2022-08-07T08:54:36.942Z,22.79
2022-08-07T08:55:55.266Z,22.67
2022-08-07T08:56:37.254Z,22.45
2022-08-07T08:57:37.236Z,22.35
2022-08-07T08:58:36.273Z,22.37
2022-08-07T08:59:42.051Z,22.39
2022-08-07T09:00:42.685Z,22.52
2022-08-07T09:01:44.205Z,22.67
2022-08-07T09:02:37.732Z,22.82
2022-08-07T09:03:49.493Z,22.77
2022-08-07T09:04:37.180Z,22.57
2022-08-07T09:05:37.620Z,22.40
2022-08-07T09:06:36.160Z,22.37
2022-08-07T09:07:46.437Z,22.55
2022-08-07T09:08:37.158Z,22.65
2022-08-07T09:09:36.743Z,22.60
2022-08-07T09:10:36.114Z,22.68
2022-08-07T09:11:51.166Z,22.85
2022-08-07T09:12:37.081Z,22.98
2022-08-07T09:13:37.686Z,23.09
2022-08-07T09:14:36.073Z,23.20
2022-08-07T09:16:22.556Z,23.28
2022-08-07T09:16:37.040Z,23.07
2022-08-07T09:18:00.351Z,22.86
2022-08-07T09:18:37.041Z,22.83
2022-08-07T09:19:53.033Z,22.80
2022-08-07T09:20:37.143Z,22.86
2022-08-07T09:22:10.072Z,22.92
2022-08-07T09:24:31.402Z,23.12
2022-08-07T09:24:55.559Z,23.00
2022-08-07T09:24:59.347Z,23.23
2022-08-07T09:25:37.675Z,23.35
2022-08-07T09:26:35.955Z,23.40
2022-08-07T09:27:54.752Z,23.50
2022-08-07T09:30:01.165Z,23.69
2022-08-07T09:30:04.039Z,23.79
2022-08-07T09:30:36.917Z,23.98
2022-08-07T09:31:38.542Z,24.12
2022-08-07T09:32:35.878Z,24.20
2022-08-07T09:33:53.118Z,24.18
2022-08-07T09:34:36.861Z,23.93
2022-08-07T09:36:05.014Z,23.61
2022-08-07T09:36:37.449Z,23.75
2022-08-07T09:37:48.355Z,23.90
2022-08-07T09:38:36.802Z,24.00
2022-08-07T09:39:54.475Z,23.65
2022-08-07T09:40:36.837Z,23.43
2022-08-07T09:41:36.481Z,23.32
2022-08-07T09:42:36.783Z,23.12
2022-08-07T09:43:40.019Z,23.04
2022-08-07T09:44:58.697Z,23.00
2022-08-07T09:47:29.137Z,23.00
2022-08-07T09:47:50.659Z,22.85
2022-08-07T09:47:59.101Z,23.13
2022-08-07T09:48:56.130Z,23.19
2022-08-07T09:50:00.452Z,23.15
2022-08-07T09:50:36.714Z,23.33
2022-08-07T09:52:15.745Z,23.63
2022-08-07T09:52:36.665Z,23.88
2022-08-07T09:53:41.161Z,24.16
2022-08-07T09:54:36.701Z,24.30
2022-08-07T09:56:03.580Z,24.46
2022-08-07T09:56:37.571Z,24.53
2022-08-07T09:57:36.622Z,24.60
2022-08-07T09:58:35.627Z,24.80
2022-08-07T09:59:44.309Z,24.83
2022-08-07T10:00:36.689Z,25.02
2022-08-07T10:01:51.391Z,25.14
2022-08-07T10:02:36.568Z,24.93
2022-08-07T10:04:07.118Z,24.61
2022-08-07T10:04:38.271Z,24.43
2022-08-07T10:05:58.924Z,24.37
2022-08-07T10:06:36.742Z,24.43
2022-08-07T10:07:52.364Z,24.55
2022-08-07T10:08:36.594Z,24.47
2022-08-07T10:09:59.040Z,24.37
2022-08-07T10:11:00.367Z,24.31
2022-08-07T10:12:00.592Z,24.42
2022-08-07T10:12:39.689Z,24.31
2022-08-07T10:14:01.294Z,24.43
2022-08-07T10:14:36.426Z,24.60
2022-08-07T10:15:37.867Z,24.46
2022-08-07T10:16:36.439Z,24.60
2022-08-07T10:18:00.770Z,24.77
2022-08-07T10:18:36.527Z,24.68
2022-08-07T10:19:37.763Z,24.57
2022-08-07T10:20:35.740Z,24.32
2022-08-07T10:22:14.982Z,24.45
2022-08-07T10:22:37.500Z,24.64
2022-08-07T10:24:06.227Z,24.71
2022-08-07T10:24:39.639Z,24.90
2022-08-07T10:25:42.559Z,25.10
2022-08-07T10:26:36.301Z,25.28
2022-08-07T10:27:46.189Z,25.45
2022-08-07T10:28:36.299Z,25.58
2022-08-07T10:29:35.308Z,25.60
2022-08-07T10:30:36.298Z,25.70
2022-08-07T10:31:38.830Z,25.80
2022-08-07T10:32:50.978Z,25.65
2022-08-07T10:34:06.174Z,25.65
2022-08-07T10:34:36.226Z,25.80
2022-08-07T10:35:55.939Z,25.87
2022-08-07T10:36:37.736Z,25.90
2022-08-07T10:38:00.527Z,26.09
2022-08-07T10:38:48.086Z,26.20
2022-08-07T10:39:41.189Z,26.37
2022-08-07T10:40:36.176Z,26.37
2022-08-07T10:41:51.522Z,26.32
2022-08-07T10:42:36.520Z,26.29
2022-08-07T10:43:35.286Z,26.30
2022-08-07T10:44:38.296Z,26.23
2022-08-07T10:45:45.453Z,26.35
2022-08-07T10:46:36.100Z,26.32
2022-08-07T10:47:52.744Z,26.36
2022-08-07T10:48:36.115Z,26.48
2022-08-07T10:49:49.337Z,26.57
2022-08-07T10:50:36.065Z,26.63
2022-08-07T10:51:39.584Z,26.73
2022-08-07T10:52:36.050Z,26.84
2022-08-07T10:53:41.926Z,26.89
2022-08-07T10:54:36.024Z,26.87
2022-08-07T10:55:38.675Z,26.65
2022-08-07T10:56:35.003Z,26.48
2022-08-07T10:57:36.881Z,26.50
2022-08-07T10:58:36.744Z,26.48
2022-08-07T10:59:37.167Z,26.40
2022-08-07T11:00:36.506Z,26.47
2022-08-07T11:01:35.707Z,26.44
2022-08-07T11:02:37.898Z,26.58
2022-08-07T11:03:37.753Z,26.73
2022-08-07T11:04:37.794Z,26.89
2022-08-07T11:05:48.597Z,27.04
2022-08-07T11:06:35.888Z,27.13
2022-08-07T11:07:58.440Z,27.13
2022-08-07T11:08:35.885Z,27.19
2022-08-07T11:10:07.237Z,27.25
2022-08-07T11:10:37.207Z,27.22
2022-08-07T11:11:35.584Z,27.06
2022-08-07T11:12:35.215Z,26.89
2022-08-07T11:14:44.468Z,26.43
2022-08-07T11:14:46.080Z,25.80
2022-08-07T11:15:35.825Z,25.92
2022-08-07T11:16:34.821Z,26.13
2022-08-07T11:17:45.556Z,26.09
2022-08-07T11:18:35.772Z,25.25
2022-08-07T11:19:34.780Z,25.24
2022-08-07T11:20:34.761Z,25.35
2022-08-07T11:21:34.733Z,25.46
2022-08-07T11:22:43.898Z,25.54
2022-08-07T11:23:38.677Z,25.80
2022-08-07T11:24:34.696Z,25.97
2022-08-07T11:25:35.929Z,25.77
2022-08-07T11:26:38.460Z,25.65
2022-08-07T11:28:03.207Z,25.50
2022-08-07T11:28:35.676Z,25.61
2022-08-07T11:29:40.944Z,25.65
2022-08-07T11:30:41.390Z,25.15
2022-08-07T11:31:35.623Z,24.99
2022-08-07T11:32:34.620Z,25.03
2022-08-07T11:33:53.875Z,25.28
2022-08-07T11:34:35.606Z,25.64
2022-08-07T11:35:35.596Z,25.70
2022-08-07T11:36:35.577Z,25.50
2022-08-07T11:37:38.482Z,25.24
2022-08-07T11:38:35.555Z,25.15
2022-08-07T11:39:58.970Z,25.14
2022-08-07T11:40:35.555Z,24.83
2022-08-07T11:42:01.472Z,24.52
2022-08-07T11:42:35.512Z,24.24
2022-08-07T11:43:54.640Z,24.10
2022-08-07T11:44:35.483Z,24.16
2022-08-07T11:45:35.804Z,24.25
2022-08-07T11:46:36.695Z,24.32
2022-08-07T11:47:38.539Z,24.45
2022-08-07T11:48:35.481Z,24.45
2022-08-07T11:50:25.142Z,24.08
2022-08-07T11:50:35.442Z,24.02
2022-08-07T11:51:41.363Z,23.72
2022-08-07T11:52:35.742Z,23.75
2022-08-07T11:53:35.378Z,23.90
2022-08-07T11:54:34.411Z,23.94
2022-08-07T11:56:25.689Z,23.94
2022-08-07T11:56:35.361Z,23.88
2022-08-07T11:57:57.893Z,23.72
2022-08-07T11:58:35.363Z,23.87
2022-08-07T12:00:11.996Z,24.13
2022-08-07T12:00:35.326Z,24.31
2022-08-07T12:01:59.021Z,24.60
2022-08-07T12:02:35.376Z,24.81
2022-08-07T12:03:45.341Z,24.43
2022-08-07T12:04:35.298Z,24.25
2022-08-07T12:05:47.691Z,24.15
2022-08-07T12:06:37.512Z,23.97
2022-08-07T12:07:39.160Z,23.84
2022-08-07T12:08:35.327Z,23.79
2022-08-07T12:09:34.239Z,23.83
2022-08-07T12:11:32.364Z,24.39
2022-08-07T12:12:27.571Z,24.64
2022-08-07T12:13:37.052Z,24.69
2022-08-07T12:14:28.539Z,24.95
2022-08-07T12:15:57.998Z,25.08
2022-08-07T12:16:29.619Z,24.85
2022-08-07T12:17:27.521Z,24.76
2022-08-07T12:18:29.828Z,24.68
2022-08-07T12:19:35.991Z,24.37
2022-08-07T12:20:30.205Z,24.39
2022-08-07T12:22:36.190Z,24.61
2022-08-07T12:22:37.239Z,24.69
2022-08-07T12:24:05.106Z,24.95
2022-08-07T12:24:37.898Z,25.27
2022-08-07T12:26:03.199Z,25.47
2022-08-07T12:26:29.707Z,25.17
2022-08-07T12:27:28.079Z,25.15
2022-08-07T12:28:31.322Z,25.10
2022-08-07T12:29:37.888Z,24.83
2022-08-07T12:30:28.383Z,24.99
2022-08-07T12:31:27.473Z,25.25
2022-08-07T12:32:28.361Z,25.35
2022-08-07T12:33:30.815Z,25.52
2022-08-07T12:34:28.340Z,25.82
2022-08-07T12:35:29.174Z,25.99
2022-08-07T12:36:33.579Z,26.25
2022-08-07T12:38:10.835Z,26.47
2022-08-07T12:38:38.511Z,26.62
2022-08-07T12:39:42.264Z,26.84
2022-08-07T12:41:42.679Z,27.17
2022-08-07T12:42:31.881Z,27.37
2022-08-07T12:44:02.415Z,27.47
2022-08-07T12:44:28.235Z,27.59
2022-08-07T12:45:27.225Z,27.66
2022-08-07T12:46:32.315Z,27.81
2022-08-07T12:47:31.045Z,27.78
2022-08-07T12:48:28.536Z,27.84
2022-08-07T12:49:48.439Z,27.92
2022-08-07T12:50:38.929Z,27.93
2022-08-07T12:51:46.703Z,27.88
2022-08-07T12:52:28.202Z,27.85
2022-08-07T12:53:27.659Z,27.66
2022-08-07T12:54:38.326Z,27.78
2022-08-07T12:55:41.199Z,27.92